Time;durP1;ratioP1;P1;durP2;ratioP2;P2;SDS_P1;SDS_P2;PMS_P1;PMS_P2;Temp;Humidity;BMP_temperature;BMP_pressure;BME280_temperature;BME280_humidity;BME280_pressure;Samples;Min_cycle;Max_cycle;Signal;HPM_P1;HPM_P2
2023/05/27 00:02:21;;;;;;;15.10;4.43;;;11.70;31.40;;;;;;5020178;28;20538;-82
2023/05/27 00:04:49;;;;;;;16.27;5.03;;;11.70;99.90;;;;;;5020342;28;20454;-83
2023/05/27 00:07:16;;;;;;;15.00;4.70;;;11.70;99.90;;;;;;5021273;28;20567;-82
2023/05/27 00:09:43;;;;;;;10.53;4.03;;;11.60;80.60;;;;;;5024697;28;20449;-83
2023/05/27 00:12:10;;;;;;;19.63;4.77;;;11.60;99.90;;;;;;5034707;28;20441;-83
2023/05/27 00:14:36;;;;;;;13.90;5.77;;;11.60;99.90;;;;;;5034243;28;20493;-82
2023/05/27 00:17:03;;;;;;;10.90;4.17;;;11.50;99.90;;;;;;5034691;28;20503;-84
2023/05/27 00:19:31;;;;;;;9.93;3.80;;;11.50;1.00;;;;;;5034983;28;20504;-82
2023/05/27 00:21:59;;;;;;;8.33;3.80;;;11.40;1.00;;;;;;5025419;28;20452;-83
2023/05/27 00:24:26;;;;;;;13.30;4.40;;;11.40;1.00;;;;;;5022006;28;20553;-81
2023/05/27 00:26:53;;;;;;;15.80;4.73;;;11.40;1.00;;;;;;5022279;28;20995;-82
2023/05/27 00:29:20;;;;;;;9.20;4.10;;;11.40;1.00;;;;;;5021451;28;20589;-83
2023/05/27 00:31:47;;;;;;;12.30;5.80;;;11.30;1.00;;;;;;5021737;28;20463;-84
2023/05/27 00:34:13;;;;;;;14.47;5.00;;;11.30;1.00;;;;;;5019831;28;20555;-84
2023/05/27 00:36:40;;;;;;;12.33;4.30;;;11.20;10.30;;;;;;5021377;28;20467;-83
2023/05/27 00:39:08;;;;;;;11.00;4.17;;;11.20;99.90;;;;;;5020893;28;20539;-84
2023/05/27 00:41:35;;;;;;;13.40;3.63;;;11.20;99.90;;;;;;5020269;28;20483;-84
2023/05/27 00:44:03;;;;;;;13.00;4.90;;;11.10;99.90;;;;;;5019401;28;20474;-82
2023/05/27 00:46:30;;;;;;;15.37;4.73;;;11.10;99.90;;;;;;5020826;28;20465;-83
2023/05/27 00:48:56;;;;;;;20.67;5.20;;;11.10;99.90;;;;;;5020749;28;20480;-82
2023/05/27 00:51:24;;;;;;;11.00;4.17;;;11.00;99.90;;;;;;5019873;28;20456;-83
2023/05/27 00:53:51;;;;;;;8.67;3.63;;;11.00;99.90;;;;;;5019357;28;20480;-83
2023/05/27 00:56:20;;;;;;;13.47;5.23;;;11.00;99.90;;;;;;5021068;28;20524;-84
2023/05/27 00:58:47;;;;;;;10.03;4.70;;;10.90;99.90;;;;;;5018641;28;20455;-82
2023/05/27 01:01:14;;;;;;;12.10;5.10;;;11.00;99.90;;;;;;5022028;28;20476;-83
2023/05/27 01:03:41;;;;;;;19.30;5.37;;;10.90;99.90;;;;;;5022583;28;20470;-82
2023/05/27 01:06:18;;;;;;;13.13;4.80;;;10.90;99.90;;;;;;5023585;28;20459;-83
2023/05/27 01:08:55;;;;;;;12.10;5.27;;;10.90;99.90;;;;;;5021263;28;20567;-82
2023/05/27 01:11:29;;;;;;;12.27;4.20;;;10.80;99.90;;;;;;5024155;28;20524;-83
2023/05/27 01:14:01;;;;;;;11.70;5.10;;;10.80;99.90;;;;;;5022508;28;20562;-83
2023/05/27 01:16:30;;;;;;;13.00;4.83;;;10.80;99.90;;;;;;5023299;28;20437;-83
2023/05/27 01:19:02;;;;;;;15.33;4.77;;;10.80;99.90;;;;;;5022869;28;21002;-83
2023/05/27 01:21:31;;;;;;;10.00;4.63;;;10.70;99.90;;;;;;5023934;28;20451;-82
2023/05/27 01:24:05;;;;;;;12.53;5.40;;;10.70;99.90;;;;;;5021863;28;20484;-82
2023/05/27 01:26:32;;;;;;;14.53;4.10;;;10.60;99.90;;;;;;5023149;28;20491;-82
2023/05/27 01:28:59;;;;;;;14.20;5.43;;;10.60;99.90;;;;;;5023298;28;20502;-83
2023/05/27 01:31:33;;;;;;;14.53;5.10;;;10.60;99.90;;;;;;5023532;28;20478;-82
2023/05/27 01:34:02;;;;;;;11.77;4.43;;;10.60;1.00;;;;;;5022227;28;20494;-83
2023/05/27 01:36:34;;;;;;;13.73;4.40;;;10.50;1.00;;;;;;5023612;28;20457;-83
2023/05/27 01:39:03;;;;;;;12.47;4.60;;;10.50;1.00;;;;;;5023337;28;20438;-82
2023/05/27 01:41:31;;;;;;;9.80;4.47;;;10.40;1.00;;;;;;5023184;28;20460;-83
2023/05/27 01:43:59;;;;;;;14.87;4.67;;;10.40;1.00;;;;;;5022511;28;20531;-84
2023/05/27 01:46:26;;;;;;;15.30;4.77;;;10.40;1.00;;;;;;5027859;28;20431;-81
2023/05/27 01:48:53;;;;;;;12.83;4.20;;;10.40;1.00;;;;;;5038457;28;20485;-81
2023/05/27 01:51:20;;;;;;;14.90;5.90;;;10.30;1.00;;;;;;5023163;28;20512;-83
2023/05/27 01:53:47;;;;;;;12.90;5.83;;;10.30;1.00;;;;;;5022224;28;20481;-83
2023/05/27 01:56:13;;;;;;;13.83;5.40;;;10.20;1.00;;;;;;5008201;28;20512;-83
2023/05/27 01:58:42;;;;;;;15.70;5.07;;;10.20;1.00;;;;;;5021120;28;20465;-83
2023/05/27 02:01:08;;;;;;;12.33;5.60;;;10.10;1.00;;;;;;5022679;28;20459;-83
2023/05/27 02:03:35;;;;;;;12.30;3.93;;;10.10;1.00;;;;;;5021623;28;20657;-82
2023/05/27 02:06:02;;;;;;;9.10;4.47;;;10.10;1.00;;;;;;5022575;28;20486;-84
2023/05/27 02:08:29;;;;;;;12.43;4.10;;;10.10;1.00;;;;;;5022528;28;20493;-83
2023/05/27 02:10:55;;;;;;;11.33;4.90;;;10.10;1.00;;;;;;5022487;28;20522;-82
2023/05/27 02:13:22;;;;;;;11.37;5.03;;;10.00;1.00;;;;;;5002621;28;20472;-83
2023/05/27 02:15:50;;;;;;;17.37;5.70;;;10.00;1.00;;;;;;5022757;28;20481;-83
2023/05/27 02:18:20;;;;;;;13.50;4.53;;;10.00;1.00;;;;;;5022656;28;20485;-83
2023/05/27 02:20:48;;;;;;;21.33;4.90;;;10.00;1.00;;;;;;5020277;28;20463;-84
2023/05/27 02:23:14;;;;;;;13.00;4.60;;;9.90;1.00;;;;;;5022243;28;20475;-84
2023/05/27 02:25:41;;;;;;;14.07;5.40;;;9.90;1.00;;;;;;5021505;28;20451;-83
2023/05/27 02:28:08;;;;;;;10.80;4.10;;;9.90;1.00;;;;;;5002803;28;20586;-83
2023/05/27 02:30:35;;;;;;;14.73;5.13;;;9.90;1.00;;;;;;5012027;28;20540;-84
2023/05/27 02:33:03;;;;;;;7.00;4.03;;;9.90;1.00;;;;;;5021568;28;20486;-84
2023/05/27 02:35:30;;;;;;;14.07;4.73;;;9.80;1.00;;;;;;5022023;28;20527;-83
2023/05/27 02:37:56;;;;;;;13.07;5.17;;;9.80;1.00;;;;;;5021439;28;20457;-83
2023/05/27 02:40:27;;;;;;;10.90;4.60;;;9.80;1.00;;;;;;5021129;28;20824;-84
2023/05/27 02:42:54;;;;;;;13.27;4.93;;;9.70;1.00;;;;;;5020420;28;20625;-84
2023/05/27 02:45:21;;;;;;;10.87;4.40;;;9.70;1.00;;;;;;5021458;28;20981;-82
2023/05/27 02:47:48;;;;;;;10.53;3.97;;;9.70;1.00;;;;;;5021626;28;20460;-84
2023/05/27 02:50:16;;;;;;;12.20;5.27;;;9.60;1.00;;;;;;5021539;28;20446;-83
2023/05/27 02:52:43;;;;;;;15.53;4.90;;;9.60;1.00;;;;;;5020254;28;20479;-83
2023/05/27 02:55:10;;;;;;;13.07;4.53;;;9.60;1.00;;;;;;5021546;28;20548;-83
2023/05/27 02:57:37;;;;;;;11.77;4.80;;;9.60;1.00;;;;;;5021123;28;20533;-84
2023/05/27 03:00:05;;;;;;;14.83;6.47;;;9.60;1.00;;;;;;5021660;28;20545;-83
2023/05/27 03:02:31;;;;;;;9.30;4.60;;;9.60;1.00;;;;;;5020243;28;20479;-80
2023/05/27 03:05:00;;;;;;;11.80;4.93;;;9.50;1.00;;;;;;5021240;28;20464;-84
2023/05/27 03:07:29;;;;;;;13.13;5.73;;;9.50;1.00;;;;;;5021581;28;20493;-83
2023/05/27 03:09:56;;;;;;;15.53;5.10;;;9.50;1.00;;;;;;5020791;28;20477;-83
2023/05/27 03:12:23;;;;;;;16.80;5.33;;;9.50;1.00;;;;;;5020664;28;20496;-83
2023/05/27 03:14:50;;;;;;;9.13;4.90;;;9.50;1.00;;;;;;5020604;28;20884;-83
2023/05/27 03:17:18;;;;;;;14.83;6.37;;;9.40;1.00;;;;;;5021526;28;20489;-84
2023/05/27 03:19:45;;;;;;;10.10;4.97;;;9.40;1.00;;;;;;5020719;28;20449;-84
2023/05/27 03:22:12;;;;;;;10.30;4.90;;;9.40;1.00;;;;;;5021046;28;20459;-82
2023/05/27 03:24:41;;;;;;;19.77;5.23;;;9.30;1.00;;;;;;5019823;28;20504;-83
2023/05/27 03:27:08;;;;;;;10.67;5.20;;;9.30;1.00;;;;;;5020880;28;20542;-84
2023/05/27 03:29:35;;;;;;;9.80;4.50;;;9.30;1.00;;;;;;5019971;28;20489;-81
2023/05/27 03:32:02;;;;;;;11.43;4.50;;;9.30;1.00;;;;;;5019810;28;20943;-83
2023/05/27 03:34:28;;;;;;;11.60;5.10;;;9.20;1.00;;;;;;5020135;28;20575;-84
2023/05/27 03:36:55;;;;;;;13.37;5.63;;;9.20;1.00;;;;;;5019796;28;20462;-82
2023/05/27 03:39:22;;;;;;;19.97;6.50;;;9.20;1.00;;;;;;5007936;28;20457;-83
2023/05/27 03:41:50;;;;;;;13.70;6.10;;;9.20;15.40;;;;;;5020835;28;20539;-84
2023/05/27 03:44:17;;;;;;;12.07;5.40;;;9.10;19.10;;;;;;5020028;28;21015;-82
2023/05/27 03:46:44;;;;;;;15.50;6.23;;;9.10;30.70;;;;;;5020432;28;20468;-84
2023/05/27 03:49:11;;;;;;;15.07;6.30;;;9.10;57.40;;;;;;5021126;28;20488;-84
2023/05/27 03:51:38;;;;;;;12.53;6.50;;;9.10;78.30;;;;;;5020626;28;20538;-81
2023/05/27 03:54:05;;;;;;;17.13;6.87;;;9.10;94.70;;;;;;5019390;28;20478;-83
2023/05/27 03:56:31;;;;;;;8.97;4.60;;;9.10;99.90;;;;;;5021764;28;20849;-83
2023/05/27 03:59:00;;;;;;;16.27;6.70;;;9.20;99.90;;;;;;5020114;28;20467;-84
2023/05/27 04:01:27;;;;;;;13.53;4.93;;;9.20;96.30;;;;;;5029297;28;20480;-80
2023/05/27 04:03:54;;;;;;;11.17;5.47;;;9.30;99.90;;;;;;5032244;28;20534;-84
2023/05/27 04:06:21;;;;;;;13.13;5.30;;;9.20;99.40;;;;;;5019966;28;20461;-84
2023/05/27 04:08:48;;;;;;;14.40;5.00;;;9.30;99.90;;;;;;5019220;28;21118;-82
2023/05/27 04:11:15;;;;;;;13.07;5.20;;;9.30;79.50;;;;;;5020416;28;20452;-83
2023/05/27 04:13:42;;;;;;;15.63;5.70;;;9.40;56.00;;;;;;5018439;28;20474;-83
2023/05/27 04:16:10;;;;;;;17.47;6.40;;;9.40;54.30;;;;;;5019785;28;20467;-84
2023/05/27 04:18:37;;;;;;;13.43;5.10;;;9.50;55.00;;;;;;5019646;28;20830;-83
2023/05/27 04:21:04;;;;;;;13.13;5.00;;;9.50;47.30;;;;;;5019959;28;20520;-84
2023/05/27 04:23:31;;;;;;;11.63;5.10;;;9.60;30.80;;;;;;5018971;28;20481;-81
2023/05/27 04:26:00;;;;;;;13.53;6.50;;;9.60;26.40;;;;;;5019472;28;20492;-79
2023/05/27 04:28:27;;;;;;;14.10;5.30;;;9.60;27.70;;;;;;5019291;28;20468;-83
2023/05/27 04:30:54;;;;;;;16.60;5.93;;;9.70;18.40;;;;;;5019307;28;20822;-84
2023/05/27 04:33:22;;;;;;;13.93;6.17;;;9.70;12.80;;;;;;5018823;28;20571;-81
2023/05/27 04:35:53;;;;;;;12.13;5.63;;;9.80;2.00;;;;;;5021767;28;20480;-82
2023/05/27 04:38:20;;;;;;;11.00;5.70;;;9.80;1.00;;;;;;5047148;22;20507;-81
2023/05/27 04:40:52;;;;;;;17.60;6.50;;;9.90;1.00;;;;;;5025631;28;20463;-81
2023/05/27 04:43:19;;;;;;;12.07;5.63;;;9.90;1.00;;;;;;5023876;28;20981;-81
2023/05/27 04:45:46;;;;;;;14.00;5.47;;;10.00;1.00;;;;;;5041831;28;20432;-81
2023/05/27 04:48:13;;;;;;;12.63;5.50;;;10.00;1.00;;;;;;5051532;28;20536;-81
2023/05/27 04:50:42;;;;;;;13.07;6.10;;;10.10;1.00;;;;;;5056888;28;20515;-82
2023/05/27 04:53:09;;;;;;;11.80;6.30;;;10.10;1.00;;;;;;5057290;28;20479;-81
2023/05/27 04:55:36;;;;;;;13.73;5.83;;;10.10;1.00;;;;;;5049922;28;20457;-80
2023/05/27 04:58:04;;;;;;;15.90;6.20;;;10.20;1.00;;;;;;5050127;28;20465;-80
2023/05/27 05:00:38;;;;;;;12.33;6.73;;;10.20;1.00;;;;;;5055877;28;20454;-82
2023/05/27 05:03:06;;;;;;;19.27;6.07;;;10.30;1.00;;;;;;5041465;28;20467;-83
2023/05/27 05:05:33;;;;;;;11.87;4.97;;;10.30;1.00;;;;;;5039832;28;20458;-85
2023/05/27 05:08:01;;;;;;;13.13;4.80;;;10.40;1.00;;;;;;5056304;28;20539;-82
2023/05/27 05:10:29;;;;;;;11.37;5.60;;;10.40;1.00;;;;;;5058400;28;20503;-82
2023/05/27 05:12:56;;;;;;;10.27;6.17;;;10.50;1.00;;;;;;5042113;28;20451;-82
2023/05/27 05:15:23;;;;;;;17.30;6.37;;;10.50;1.00;;;;;;5025001;28;20529;-80
2023/05/27 05:17:50;;;;;;;15.60;6.53;;;10.50;1.00;;;;;;5038706;28;20482;-80
2023/05/27 05:20:17;;;;;;;13.20;6.07;;;10.50;1.00;;;;;;5044146;28;20457;-82
2023/05/27 05:22:44;;;;;;;12.03;5.87;;;10.50;1.00;;;;;;5029850;28;20450;-79
2023/05/27 05:25:12;;;;;;;13.87;6.00;;;10.60;1.00;;;;;;5024253;28;20462;-80
2023/05/27 05:27:39;;;;;;;19.53;6.13;;;10.60;1.00;;;;;;5036995;28;20505;-79
2023/05/27 05:30:07;;;;;;;13.90;5.30;;;10.70;1.00;;;;;;5043681;28;20507;-82
2023/05/27 05:32:34;;;;;;;16.00;5.90;;;10.70;1.00;;;;;;5042381;28;20537;-80
2023/05/27 05:35:01;;;;;;;10.33;5.07;;;10.80;1.00;;;;;;5042862;28;20462;-82
2023/05/27 05:37:28;;;;;;;15.53;6.23;;;10.80;1.00;;;;;;5028881;28;20908;-82
2023/05/27 05:39:56;;;;;;;21.70;6.70;;;10.80;1.00;;;;;;5023639;28;20458;-81
2023/05/27 05:42:25;;;;;;;10.07;5.30;;;10.90;1.00;;;;;;5035335;28;20455;-80
2023/05/27 05:44:52;;;;;;;15.67;6.10;;;10.90;1.00;;;;;;5037191;28;20564;-80
2023/05/27 05:47:19;;;;;;;13.57;5.77;;;11.00;1.00;;;;;;5037306;28;20458;-80
2023/05/27 05:49:46;;;;;;;15.60;6.70;;;11.10;1.00;;;;;;5042473;28;21038;-81
2023/05/27 05:52:13;;;;;;;18.50;5.83;;;11.10;1.00;;;;;;5039997;28;20542;-82
2023/05/27 05:54:40;;;;;;;13.73;5.70;;;11.20;1.00;;;;;;5039305;28;20527;-81
2023/05/27 05:57:07;;;;;;;13.80;5.70;;;11.30;1.00;;;;;;5026195;28;20455;-81
2023/05/27 05:59:35;;;;;;;21.20;6.27;;;11.30;1.00;;;;;;5025981;28;20468;-85
2023/05/27 06:02:02;;;;;;;13.50;5.63;;;11.40;1.00;;;;;;5049455;28;20485;-84
2023/05/27 06:04:29;;;;;;;12.87;6.00;;;11.40;1.00;;;;;;5042019;28;20487;-86
2023/05/27 06:06:55;;;;;;;9.63;5.63;;;11.50;1.00;;;;;;5037921;28;20541;-84
2023/05/27 06:09:23;;;;;;;20.00;7.73;;;11.60;1.00;;;;;;5033869;28;20563;-83
2023/05/27 06:11:50;;;;;;;14.30;5.47;;;11.70;1.00;;;;;;5044643;28;20477;-86
2023/05/27 06:14:17;;;;;;;12.90;6.40;;;11.80;99.90;;;;;;5041901;28;20466;-84
2023/05/27 06:16:45;;;;;;;18.83;6.00;;;11.90;99.90;;;;;;5041588;28;21000;-83
2023/05/27 06:19:12;;;;;;;15.00;6.40;;;11.90;99.90;;;;;;5025141;28;20567;-85
2023/05/27 06:21:39;;;;;;;16.53;5.97;;;11.90;99.90;;;;;;5020500;28;20499;-84
2023/05/27 06:24:06;;;;;;;13.67;5.50;;;12.00;1.00;;;;;;5020905;28;20465;-84
2023/05/27 06:26:33;;;;;;;14.00;5.57;;;12.20;99.90;;;;;;5020552;28;20460;-85
2023/05/27 06:29:00;;;;;;;15.10;5.97;;;12.20;99.90;;;;;;5032265;28;20925;-82
2023/05/27 06:31:27;;;;;;;23.97;6.73;;;12.30;99.90;;;;;;5039008;28;20527;-81
2023/05/27 06:33:58;;;;;;;12.20;5.60;;;12.40;99.90;;;;;;5039161;28;20464;-83
2023/05/27 06:36:25;;;;;;;18.80;6.23;;;12.50;99.90;;;;;;5038962;28;20452;-83
2023/05/27 06:38:54;;;;;;;11.27;6.27;;;12.60;1.00;;;;;;5027715;28;20839;-80
2023/05/27 06:41:20;;;;;;;14.10;6.70;;;12.70;48.60;;;;;;5018814;28;20960;-81
2023/05/27 06:43:47;;;;;;;15.77;6.20;;;12.80;1.00;;;;;;5018162;28;20461;-81
2023/05/27 06:46:14;;;;;;;15.73;7.93;;;12.70;99.90;;;;;;5019325;28;20485;-81
2023/05/27 06:48:41;;;;;;;14.63;5.47;;;12.90;1.00;;;;;;5022600;28;20540;-81
2023/05/27 06:51:09;;;;;;;11.70;5.67;;;12.90;1.00;;;;;;5018457;28;20498;-81
2023/05/27 06:53:36;;;;;;;13.30;5.53;;;13.00;99.90;;;;;;5023227;28;20460;-81
2023/05/27 06:56:03;;;;;;;15.00;6.97;;;13.10;99.90;;;;;;5039831;28;20517;-80
2023/05/27 06:58:30;;;;;;;14.63;5.90;;;13.20;99.90;;;;;;5034552;28;20586;-81
2023/05/27 07:00:57;;;;;;;15.50;6.80;;;13.30;1.00;;;;;;5038925;28;20986;-81
2023/05/27 07:03:24;;;;;;;15.20;5.30;;;13.40;67.00;;;;;;5037751;28;20512;-82
2023/05/27 07:05:51;;;;;;;15.70;7.10;;;13.50;1.00;;;;;;5039919;28;20491;-82
2023/05/27 07:08:19;;;;;;;15.30;6.40;;;13.60;1.00;;;;;;5032466;28;20895;-83
2023/05/27 07:10:46;;;;;;;16.70;6.57;;;13.70;1.00;;;;;;5038750;28;20490;-81
2023/05/27 07:13:13;;;;;;;19.20;6.47;;;13.70;99.90;;;;;;5037202;28;21122;-79
2023/05/27 07:15:40;;;;;;;16.40;6.50;;;13.80;1.00;;;;;;5037884;28;20458;-80
2023/05/27 07:18:07;;;;;;;11.40;5.50;;;13.90;99.90;;;;;;5033486;28;20543;-81
2023/05/27 07:20:34;;;;;;;16.43;7.13;;;14.00;99.90;;;;;;5037793;28;20461;-82
2023/05/27 07:23:01;;;;;;;10.37;5.90;;;14.10;1.00;;;;;;5036899;28;20815;-82
2023/05/27 07:25:29;;;;;;;16.20;5.63;;;14.10;1.00;;;;;;5021734;28;20448;-82
2023/05/27 07:27:56;;;;;;;13.87;6.67;;;14.40;99.90;;;;;;5019328;28;20531;-84
2023/05/27 07:30:23;;;;;;;16.07;5.50;;;14.40;99.90;;;;;;5030858;28;20566;-79
2023/05/27 07:32:50;;;;;;;15.57;6.60;;;14.50;62.30;;;;;;5018152;28;20463;-80
2023/05/27 07:35:17;;;;;;;9.87;5.47;;;14.60;1.00;;;;;;5032813;28;20461;-82
2023/05/27 07:37:44;;;;;;;13.30;5.70;;;14.70;1.00;;;;;;5019473;28;20493;-82
2023/05/27 07:40:11;;;;;;;16.53;6.83;;;14.80;1.00;;;;;;5018346;28;20492;-81
2023/05/27 07:42:39;;;;;;;11.60;5.33;;;14.80;99.90;;;;;;5017791;28;20472;-79
2023/05/27 07:45:07;;;;;;;17.00;5.87;;;14.90;99.90;;;;;;5017951;28;20497;-81
2023/05/27 07:47:34;;;;;;;14.93;7.17;;;14.90;99.90;;;;;;5018587;28;20974;-82
2023/05/27 07:50:00;;;;;;;16.77;6.60;;;15.10;99.90;;;;;;5031284;28;20567;-84
2023/05/27 07:52:27;;;;;;;19.00;6.27;;;15.10;99.90;;;;;;5037711;28;20531;-82
2023/05/27 07:54:54;;;;;;;14.20;5.90;;;15.20;1.00;;;;;;5036912;28;20539;-82
2023/05/27 07:57:21;;;;;;;14.47;6.30;;;15.30;6.50;;;;;;5036156;28;20510;-85
2023/05/27 07:59:49;;;;;;;15.97;5.30;;;15.40;1.00;;;;;;5019603;28;20457;-83
2023/05/27 08:02:16;;;;;;;14.70;5.40;;;15.50;1.00;;;;;;5018776;28;20469;-82
2023/05/27 08:04:44;;;;;;;16.23;5.83;;;15.70;1.00;;;;;;5019430;28;20453;-83
2023/05/27 08:07:11;;;;;;;13.40;5.40;;;15.80;99.90;;;;;;5023653;28;20865;-81
2023/05/27 08:09:38;;;;;;;16.20;5.73;;;16.00;92.70;;;;;;5036021;28;20454;-79
2023/05/27 08:12:06;;;;;;;9.10;4.10;;;16.20;1.00;;;;;;5030898;28;21174;-81
2023/05/27 08:14:33;;;;;;;14.87;5.63;;;16.30;1.00;;;;;;5022485;28;20937;-82
2023/05/27 08:17:01;;;;;;;12.07;5.10;;;16.40;1.00;;;;;;5018460;28;20457;-82
2023/05/27 08:19:28;;;;;;;15.73;5.77;;;16.60;1.00;;;;;;5041040;28;20576;-85
2023/05/27 08:21:55;;;;;;;13.20;5.10;;;16.80;1.00;;;;;;5040221;28;20559;-81
2023/05/27 08:24:23;;;;;;;14.23;6.10;;;17.00;99.90;;;;;;5039509;28;20929;-82
2023/05/27 08:26:50;;;;;;;10.40;5.90;;;17.30;99.90;;;;;;5037871;28;20904;-80
2023/05/27 08:29:18;;;;;;;13.13;5.20;;;17.50;99.90;;;;;;5039926;28;20484;-81
2023/05/27 08:31:45;;;;;;;11.33;5.57;;;17.80;75.60;;;;;;5036795;28;20513;-82
2023/05/27 08:34:13;;;;;;;14.37;5.83;;;18.00;30.70;;;;;;5038036;28;20520;-80
2023/05/27 08:36:40;;;;;;;13.07;5.20;;;18.40;1.00;;;;;;5038103;28;20459;-84
2023/05/27 08:39:07;;;;;;;10.23;5.63;;;18.70;1.00;;;;;;5024683;28;20587;-81
2023/05/27 08:41:35;;;;;;;13.57;5.20;;;19.20;1.00;;;;;;5021562;28;20883;-83
2023/05/27 08:44:02;;;;;;;15.67;5.50;;;19.60;1.00;;;;;;5020817;28;20453;-81
2023/05/27 08:46:29;;;;;;;13.13;5.63;;;19.80;1.00;;;;;;5023002;28;20457;-85
2023/05/27 08:48:56;;;;;;;11.23;4.93;;;19.80;1.00;;;;;;5022081;28;20477;-83
2023/05/27 08:51:25;;;;;;;13.80;5.50;;;20.00;1.00;;;;;;5020999;28;20592;-81
2023/05/27 08:53:51;;;;;;;13.77;5.30;;;19.90;1.00;;;;;;5020972;28;20453;-83
2023/05/27 08:56:22;;;;;;;12.73;5.20;;;20.00;1.00;;;;;;5022015;28;20460;-83
2023/05/27 08:58:49;;;;;;;13.80;5.37;;;20.10;1.00;;;;;;5021989;28;20514;-81
2023/05/27 09:01:18;;;;;;;13.60;6.23;;;20.20;1.00;;;;;;5021739;28;20519;-82
2023/05/27 09:03:45;;;;;;;14.00;6.13;;;20.00;1.00;;;;;;5038819;28;20530;-81
2023/05/27 09:06:12;;;;;;;19.67;5.63;;;20.10;1.00;;;;;;5040613;28;20452;-83
2023/05/27 09:08:40;;;;;;;16.10;5.57;;;20.20;1.00;;;;;;5021943;28;20477;-81
2023/05/27 09:11:08;;;;;;;15.63;4.83;;;20.40;1.00;;;;;;5020273;28;20989;-82
2023/05/27 09:13:35;;;;;;;17.60;6.57;;;20.50;1.00;;;;;;5018627;28;20950;-80
2023/05/27 09:16:04;;;;;;;10.40;4.83;;;20.60;1.00;;;;;;5019338;28;20537;-83
2023/05/27 09:18:32;;;;;;;14.57;6.07;;;20.80;1.00;;;;;;5020660;28;20484;-83
2023/05/27 09:20:59;;;;;;;10.43;4.43;;;20.80;1.00;;;;;;5018837;28;20478;-82
2023/05/27 09:23:26;;;;;;;10.67;4.77;;;20.90;1.00;;;;;;5013465;28;20980;-81
2023/05/27 09:25:55;;;;;;;10.57;3.63;;;21.10;1.00;;;;;;5019249;28;20460;-82
2023/05/27 09:28:22;;;;;;;10.80;4.70;;;21.20;1.00;;;;;;5020746;28;20473;-82
2023/05/27 09:30:55;;;;;;;13.10;4.20;;;21.40;1.00;;;;;;5021126;28;20485;-83
2023/05/27 09:33:25;;;;;;;13.10;5.20;;;21.50;1.00;;;;;;5020286;28;20456;-83
2023/05/27 09:35:52;;;;;;;10.50;4.90;;;21.80;99.90;;;;;;5020660;28;20462;-82
2023/05/27 09:38:19;;;;;;;12.93;5.30;;;22.00;99.90;;;;;;5020586;28;20540;-82
2023/05/27 09:40:46;;;;;;;12.20;4.47;;;22.30;99.90;;;;;;5020021;28;20457;-83
2023/05/27 09:43:16;;;;;;;13.20;4.63;;;22.60;99.90;;;;;;5030328;28;20457;-84
2023/05/27 09:45:44;;;;;;;11.00;4.17;;;22.90;99.90;;;;;;5041299;28;20456;-82
2023/05/27 09:48:13;;;;;;;10.77;4.07;;;23.00;99.90;;;;;;5024487;28;20528;-82
2023/05/27 09:50:41;;;;;;;10.30;4.50;;;23.10;99.90;;;;;;5020401;28;20493;-83
2023/05/27 09:53:09;;;;;;;12.67;4.70;;;23.40;99.90;;;;;;5025413;28;20449;-84
2023/05/27 09:55:36;;;;;;;11.43;4.20;;;23.70;99.90;;;;;;5023105;28;20516;-83
2023/05/27 09:58:03;;;;;;;15.07;4.23;;;24.00;99.90;;;;;;5024183;28;20557;-82
2023/05/27 10:00:34;;;;;;;10.90;4.10;;;24.30;99.90;;;;;;5021039;28;20446;-83
2023/05/27 10:03:02;;;;;;;11.13;4.23;;;24.50;99.90;;;;;;5027101;28;20489;-83
2023/05/27 10:05:30;;;;;;;11.77;3.93;;;24.70;99.90;;;;;;5024698;28;20445;-85
2023/05/27 10:07:57;;;;;;;11.33;4.90;;;25.10;99.90;;;;;;5022842;28;20478;-85
2023/05/27 10:10:23;;;;;;;11.00;4.30;;;25.30;99.90;;;;;;5014705;28;20497;-83
2023/05/27 10:12:53;;;;;;;10.03;4.57;;;25.70;99.90;;;;;;5021650;28;20454;-85
2023/05/27 10:15:24;;;;;;;11.70;4.17;;;26.00;99.90;;;;;;5025329;28;20548;-84
2023/05/27 10:17:55;;;;;;;9.37;4.63;;;26.30;99.90;;;;;;5029300;28;20473;-83
2023/05/27 10:20:30;;;;;;;9.70;4.00;;;26.60;99.90;;;;;;5016217;28;20450;-83
2023/05/27 10:23:11;;;;;;;9.70;4.00;;;26.70;99.90;;;;;;5028067;28;20456;-85
2023/05/27 10:25:38;;;;;;;8.40;4.30;;;27.10;99.90;;;;;;5023827;28;20455;-82
2023/05/27 10:28:05;;;;;;;10.47;3.80;;;27.50;99.90;;;;;;5027223;28;20477;-82
2023/05/27 10:30:44;;;;;;;10.03;4.73;;;27.80;99.90;;;;;;5028189;28;20488;-84
2023/05/27 10:33:12;;;;;;;9.03;3.40;;;28.10;99.90;;;;;;5023810;28;20523;-82
2023/05/27 10:35:53;;;;;;;10.77;4.50;;;28.40;99.90;;;;;;5019568;28;20869;-83
2023/05/27 10:38:20;;;;;;;9.50;4.20;;;28.80;99.90;;;;;;5019835;28;20517;-85
2023/05/27 10:40:48;;;;;;;9.80;3.73;;;29.10;99.90;;;;;;5024081;28;20509;-82
2023/05/27 10:43:19;;;;;;;7.83;3.57;;;29.50;99.90;;;;;;5022494;28;20849;-83
2023/05/27 10:45:46;;;;;;;11.10;4.10;;;29.70;99.90;;;;;;5035560;28;20465;-82
2023/05/27 10:48:19;;;;;;;10.03;3.93;;;29.80;99.90;;;;;;5042407;28;20516;-83
2023/05/27 10:50:53;;;;;;;7.00;3.80;;;30.30;99.90;;;;;;5032079;28;20490;-84
2023/05/27 10:53:21;;;;;;;11.40;3.77;;;30.90;99.90;;;;;;5023351;28;20460;-84
2023/05/27 10:55:50;;;;;;;9.47;3.70;;;31.40;99.90;;;;;;5024014;28;20549;-85
2023/05/27 10:58:17;;;;;;;10.13;4.77;;;31.60;99.90;;;;;;5037602;28;20476;-84
2023/05/27 11:00:45;;;;;;;13.73;4.50;;;31.90;99.90;;;;;;5042161;28;20448;-82
2023/05/27 11:03:21;;;;;;;10.23;4.03;;;32.10;99.90;;;;;;5041477;28;20511;-82
2023/05/27 11:05:48;;;;;;;5.50;3.50;;;32.60;99.90;;;;;;5040798;28;20441;-83
2023/05/27 11:08:15;;;;;;;13.37;4.90;;;32.80;99.90;;;;;;5039195;28;20488;-81
2023/05/27 11:10:42;;;;;;;9.53;4.60;;;32.60;99.90;;;;;;5041605;28;20540;-82
2023/05/27 11:13:09;;;;;;;10.40;4.80;;;33.40;99.90;;;;;;5034461;28;20446;-83
2023/05/27 11:15:40;;;;;;;9.00;3.90;;;33.60;99.90;;;;;;5019515;28;20907;-81
2023/05/27 11:18:08;;;;;;;11.30;4.00;;;33.80;99.90;;;;;;5021929;28;21001;-82
2023/05/27 11:20:37;;;;;;;9.67;4.10;;;34.20;99.90;;;;;;5037710;28;20460;-81
2023/05/27 11:23:04;;;;;;;9.80;4.67;;;34.40;99.90;;;;;;5035460;28;20464;-81
2023/05/27 11:25:42;;;;;;;7.60;3.73;;;35.10;99.90;;;;;;5037659;28;20456;-81
2023/05/27 11:28:17;;;;;;;10.70;4.07;;;35.40;99.90;;;;;;5033931;28;20473;-80
2023/05/27 11:30:44;;;;;;;8.80;4.60;;;35.60;99.90;;;;;;5018736;28;20481;-83
2023/05/27 11:33:11;;;;;;;9.50;4.40;;;35.60;99.90;;;;;;5016419;28;20479;-83
2023/05/27 11:35:39;;;;;;;8.87;4.00;;;35.90;99.90;;;;;;5019214;28;20461;-84
2023/05/27 11:38:06;;;;;;;7.00;3.60;;;36.20;99.90;;;;;;5021200;28;20544;-83
2023/05/27 11:40:38;;;;;;;11.00;4.70;;;36.70;99.90;;;;;;5026459;28;20509;-82
2023/05/27 11:43:04;;;;;;;8.90;3.40;;;36.40;99.90;;;;;;5027472;28;20454;-82
2023/05/27 11:45:36;;;;;;;8.67;3.80;;;36.90;99.90;;;;;;5040313;28;20536;-81
2023/05/27 11:48:03;;;;;;;8.67;4.27;;;37.10;99.90;;;;;;5036076;28;20473;-81
2023/05/27 11:50:30;;;;;;;7.23;3.37;;;37.10;99.90;;;;;;5016810;28;20888;-83
2023/05/27 11:53:03;;;;;;;8.10;4.00;;;37.60;99.90;;;;;;5016586;28;20544;-80
2023/05/27 11:55:31;;;;;;;5.97;3.63;;;38.00;99.90;;;;;;5022295;28;20445;-80
2023/05/27 11:57:58;;;;;;;8.63;3.53;;;38.30;99.90;;;;;;5026533;28;21002;-81
2023/05/27 12:00:25;;;;;;;6.60;4.17;;;38.90;99.90;;;;;;5017173;28;20468;-82
2023/05/27 12:02:52;;;;;;;9.20;4.50;;;39.00;99.90;;;;;;5021781;28;20450;-80
2023/05/27 12:05:19;;;;;;;8.93;4.33;;;39.00;99.90;;;;;;5025277;28;20517;-84
2023/05/27 12:07:46;;;;;;;9.50;4.77;;;39.10;99.90;;;;;;5032128;28;20510;-81
2023/05/27 12:10:15;;;;;;;8.60;3.60;;;39.20;99.90;;;;;;5020238;28;20504;-81
2023/05/27 12:12:44;;;;;;;9.07;3.77;;;39.60;99.90;;;;;;5014951;28;20493;-83
2023/05/27 12:15:11;;;;;;;8.10;3.53;;;39.30;99.90;;;;;;5031403;28;20456;-82
2023/05/27 12:17:37;;;;;;;7.13;3.60;;;39.70;99.90;;;;;;5017870;28;20545;-80
2023/05/27 12:20:06;;;;;;;11.00;5.10;;;39.80;99.90;;;;;;5016011;28;20457;-81
2023/05/27 12:22:33;;;;;;;8.53;4.57;;;39.60;99.90;;;;;;5018774;28;20457;-80
2023/05/27 12:24:59;;;;;;;9.23;4.80;;;39.90;99.90;;;;;;5016620;28;20454;-83
2023/05/27 12:27:28;;;;;;;8.27;3.77;;;39.80;99.90;;;;;;5018373;28;20454;-82
2023/05/27 12:29:54;;;;;;;8.43;4.47;;;40.10;99.90;;;;;;5014562;28;20536;-81
2023/05/27 12:32:21;;;;;;;7.43;4.43;;;40.70;99.90;;;;;;5012025;28;20491;-81
2023/05/27 12:34:48;;;;;;;7.23;4.00;;;40.90;99.90;;;;;;5005860;28;20544;-82
2023/05/27 12:37:16;;;;;;;7.80;3.80;;;41.00;99.90;;;;;;5013967;28;20456;-80
2023/05/27 12:39:46;;;;;;;7.57;3.60;;;41.10;99.90;;;;;;5015975;28;20466;-81
2023/05/27 12:42:19;;;;;;;8.87;3.60;;;40.90;99.90;;;;;;5011915;28;20844;-82
2023/05/27 12:44:47;;;;;;;6.43;4.10;;;40.80;99.90;;;;;;5015014;28;20458;-80
2023/05/27 12:47:14;;;;;;;9.30;3.47;;;40.90;99.90;;;;;;5015495;28;20554;-78
2023/05/27 12:49:45;;;;;;;7.60;3.90;;;41.10;99.90;;;;;;5016425;28;20458;-81